createdAt,value
2022-12-15T00:00:22.552Z,-0.58
2022-12-15T00:03:08.522Z,-0.55
2022-12-15T00:05:54.622Z,-0.52
2022-12-15T00:08:40.837Z,-0.46
2022-12-15T00:11:26.774Z,-0.40
2022-12-15T00:14:12.790Z,-0.37
2022-12-15T00:16:58.749Z,-0.41
2022-12-15T00:19:44.469Z,-0.37
2022-12-15T00:22:30.685Z,-0.41
2022-12-15T00:25:16.726Z,-0.53
2022-12-15T00:28:02.522Z,-0.63
2022-12-15T00:30:49.974Z,-0.58
2022-12-15T00:33:35.891Z,-0.78
2022-12-15T00:36:22.908Z,-0.82
2022-12-15T00:38:50.260Z,-0.76
2022-12-15T00:41:18.577Z,-0.80
2022-12-15T00:43:46.108Z,-0.90
2022-12-15T00:46:32.670Z,-1.00
2022-12-15T00:49:00.466Z,-0.98
2022-12-15T00:51:46.260Z,-0.87
2022-12-15T00:54:32.345Z,-0.94
2022-12-15T00:57:18.244Z,-1.08
2022-12-15T01:00:04.218Z,-1.03
2022-12-15T01:02:50.734Z,-1.10
2022-12-15T01:05:36.744Z,-1.00
2022-12-15T01:08:22.787Z,-1.05
2022-12-15T01:11:08.887Z,-1.02
2022-12-15T01:13:54.780Z,-1.07
2022-12-15T01:16:40.771Z,-1.14
2022-12-15T01:19:27.216Z,-1.11
2022-12-15T01:21:54.632Z,-1.07
2022-12-15T01:24:21.907Z,-1.12
2022-12-15T01:26:49.127Z,-1.16
2022-12-15T01:29:16.486Z,-1.20
2022-12-15T01:31:44.061Z,-1.10
2022-12-15T01:34:11.476Z,-1.09
2022-12-15T01:36:38.850Z,-1.09
2022-12-15T01:39:06.172Z,-1.08
2022-12-15T01:41:33.403Z,-0.98
2022-12-15T01:44:23.180Z,-0.90
2022-12-15T01:46:54.531Z,-0.89
2022-12-15T01:49:26.592Z,-0.73
2022-12-15T01:51:59.427Z,-0.78
2022-12-15T01:54:32.855Z,-0.65
2022-12-15T01:57:04.771Z,-0.67
2022-12-15T01:59:50.690Z,-0.64
2022-12-15T02:02:21.442Z,-0.58
2022-12-15T02:04:51.844Z,-0.50
2022-12-15T02:07:19.680Z,-0.50
2022-12-15T02:09:48.186Z,-0.41
2022-12-15T02:12:18.336Z,-0.35
2022-12-15T02:14:51.785Z,-0.32
2022-12-15T02:17:18.835Z,-0.30
2022-12-15T02:19:45.859Z,-0.27
2022-12-15T02:22:12.900Z,-0.23
2022-12-15T02:24:49.738Z,-0.19
2022-12-15T02:27:38.232Z,-0.14
2022-12-15T02:30:24.285Z,-0.11
2022-12-15T02:33:08.264Z,-0.10
2022-12-15T02:36:00.130Z,-0.16
2022-12-15T02:38:36.123Z,-0.21
2022-12-15T02:41:05.684Z,-0.27
2022-12-15T02:43:37.019Z,-0.26
2022-12-15T02:46:23.362Z,-0.28
2022-12-15T02:49:18.352Z,-0.15
2022-12-15T02:52:15.031Z,-0.19
2022-12-15T02:55:32.927Z,-0.21
2022-12-15T02:58:15.829Z,-0.21
2022-12-15T03:00:50.728Z,-0.21
2022-12-15T03:03:21.756Z,-0.07
2022-12-15T03:05:57.327Z,-0.01
2022-12-15T03:08:24.745Z,-0.02
2022-12-15T03:10:54.382Z,0.05
2022-12-15T03:13:24.297Z,0.04
2022-12-15T03:15:52.635Z,0.03
2022-12-15T03:18:20.175Z,0.05
2022-12-15T03:20:50.860Z,0.12
2022-12-15T03:23:18.192Z,0.20
2022-12-15T03:25:46.136Z,0.38
2022-12-15T03:28:17.611Z,0.23
2022-12-15T03:30:45.087Z,0.29
2022-12-15T03:33:12.390Z,0.24
2022-12-15T03:35:39.765Z,0.25
2022-12-15T03:38:07.412Z,0.32
2022-12-15T03:40:34.732Z,0.37
2022-12-15T03:43:01.982Z,0.50
2022-12-15T03:45:29.537Z,0.44
2022-12-15T03:47:57.617Z,0.41
2022-12-15T03:50:27.234Z,0.73
2022-12-15T03:53:00.688Z,0.59
2022-12-15T03:55:31.430Z,0.57
2022-12-15T03:58:02.740Z,0.72
2022-12-15T04:00:30.160Z,0.72
2022-12-15T04:02:57.620Z,0.69
2022-12-15T04:05:28.136Z,0.54
2022-12-15T04:07:57.343Z,0.51
2022-12-15T04:10:31.903Z,0.53
2022-12-15T04:13:09.544Z,0.50
2022-12-15T04:15:38.966Z,0.56
2022-12-15T04:18:09.901Z,0.48
2022-12-15T04:20:38.689Z,0.36
2022-12-15T04:23:09.549Z,0.34
2022-12-15T04:25:55.673Z,0.47
2022-12-15T04:28:41.700Z,0.57
2022-12-15T04:31:38.119Z,0.69
2022-12-15T04:34:29.504Z,0.72
2022-12-15T04:37:15.078Z,0.58
2022-12-15T04:40:05.974Z,0.62
2022-12-15T04:42:53.479Z,0.71
2022-12-15T04:45:46.151Z,0.73
2022-12-15T04:48:32.120Z,0.69
2022-12-15T04:51:18.197Z,0.64
2022-12-15T04:54:04.675Z,0.73
2022-12-15T04:56:51.137Z,0.65
2022-12-15T04:59:37.042Z,0.71
2022-12-15T05:02:23.005Z,0.68
2022-12-15T05:05:08.892Z,0.72
2022-12-15T05:07:54.739Z,0.63
2022-12-15T05:10:40.627Z,0.63
2022-12-15T05:13:27.599Z,0.64
2022-12-15T05:16:13.804Z,0.61
2022-12-15T05:18:59.815Z,0.80
2022-12-15T05:21:45.930Z,0.77
2022-12-15T05:24:32.031Z,0.68
2022-12-15T05:27:18.117Z,0.85
2022-12-15T05:30:04.020Z,0.67
2022-12-15T05:32:33.126Z,0.65
2022-12-15T05:35:01.723Z,0.58
2022-12-15T05:37:29.156Z,0.60
2022-12-15T05:39:56.463Z,0.54
2022-12-15T05:42:23.748Z,0.74
2022-12-15T05:44:51.089Z,0.69
2022-12-15T05:47:18.461Z,0.67
2022-12-15T05:49:45.830Z,0.67
2022-12-15T05:52:13.194Z,0.63
2022-12-15T05:54:40.556Z,0.60
2022-12-15T05:57:08.055Z,0.71
2022-12-15T05:59:35.418Z,0.70
2022-12-15T06:02:02.828Z,0.72
2022-12-15T06:04:30.601Z,0.69
2022-12-15T06:06:57.893Z,0.91
2022-12-15T06:09:25.409Z,0.97
2022-12-15T06:11:52.896Z,0.96
2022-12-15T06:14:20.242Z,0.83
2022-12-15T06:16:50.701Z,0.81
2022-12-15T06:19:19.965Z,0.95
2022-12-15T06:21:47.011Z,1.06
2022-12-15T06:24:14.161Z,1.13
2022-12-15T06:26:41.375Z,0.96
2022-12-15T06:29:08.994Z,1.00
2022-12-15T06:31:36.713Z,0.97
2022-12-15T06:34:05.776Z,0.99
2022-12-15T06:36:33.037Z,1.25
2022-12-15T06:39:00.852Z,1.18
2022-12-15T06:41:30.308Z,1.15
2022-12-15T06:43:58.111Z,1.17
2022-12-15T06:46:25.887Z,1.22
2022-12-15T06:48:53.630Z,1.17
2022-12-15T06:51:20.979Z,1.19
2022-12-15T06:53:54.405Z,1.24
2022-12-15T06:56:27.260Z,1.36
2022-12-15T06:58:59.619Z,1.44
2022-12-15T07:01:27.500Z,1.43
2022-12-15T07:03:55.529Z,1.45
2022-12-15T07:06:22.972Z,1.52
2022-12-15T07:08:52.449Z,1.45
2022-12-15T07:11:21.083Z,1.41
2022-12-15T07:13:59.190Z,1.48
2022-12-15T07:16:26.783Z,1.55
2022-12-15T07:18:53.982Z,1.48
2022-12-15T07:21:21.352Z,1.43
2022-12-15T07:23:57.300Z,1.49
2022-12-15T07:26:24.973Z,1.62
2022-12-15T07:28:53.555Z,1.63
2022-12-15T07:31:21.886Z,1.57
2022-12-15T07:33:49.308Z,1.58
2022-12-15T07:36:16.540Z,1.56
2022-12-15T07:38:45.597Z,1.60
2022-12-15T07:41:19.706Z,1.60
2022-12-15T07:43:47.886Z,1.54
2022-12-15T07:46:16.195Z,1.51
2022-12-15T07:48:43.458Z,1.48
2022-12-15T07:51:19.310Z,1.45
2022-12-15T07:53:49.258Z,1.48
2022-12-15T07:56:17.410Z,1.52
2022-12-15T07:58:47.723Z,1.50
2022-12-15T08:01:21.192Z,1.50
2022-12-15T08:06:31.667Z,1.74
2022-12-15T08:09:01.620Z,1.65
2022-12-15T08:11:36.786Z,1.66
2022-12-15T08:14:18.726Z,1.70
2022-12-15T08:16:49.313Z,1.70
2022-12-15T08:19:17.774Z,1.77
2022-12-15T08:21:50.586Z,1.76
2022-12-15T08:24:29.823Z,1.78
2022-12-15T08:27:00.011Z,1.83
2022-12-15T08:29:56.352Z,1.93
2022-12-15T08:32:29.354Z,2.00
2022-12-15T08:38:17.333Z,1.99
2022-12-15T08:40:55.460Z,2.03
2022-12-15T08:43:22.899Z,2.18
2022-12-15T08:45:50.091Z,2.28
2022-12-15T08:53:49.270Z,2.30
2022-12-15T08:56:27.255Z,2.41
2022-12-15T08:59:01.319Z,2.41
2022-12-15T09:01:30.788Z,2.42
2022-12-15T09:03:58.589Z,2.48
2022-12-15T09:06:28.402Z,2.46
2022-12-15T09:08:57.624Z,2.48
2022-12-15T09:11:25.817Z,2.52
2022-12-15T09:13:53.405Z,2.56
2022-12-15T09:16:21.183Z,2.70
2022-12-15T09:18:49.582Z,2.68
2022-12-15T09:21:17.218Z,2.66
2022-12-15T09:23:47.522Z,2.63
2022-12-15T09:26:15.216Z,2.61
2022-12-15T09:28:50.057Z,2.55
2022-12-15T09:31:21.824Z,2.58
2022-12-15T09:33:50.767Z,2.70
2022-12-15T09:36:17.976Z,2.78
2022-12-15T09:38:45.106Z,2.76
2022-12-15T09:41:16.130Z,2.70
2022-12-15T09:43:52.436Z,2.78
2022-12-15T09:46:27.034Z,2.79
2022-12-15T09:48:55.693Z,2.95
2022-12-15T09:51:30.819Z,3.02
2022-12-15T09:53:58.749Z,2.96
2022-12-15T09:56:32.926Z,2.96
2022-12-15T09:59:09.713Z,3.01
2022-12-15T10:01:42.785Z,2.97
2022-12-15T10:04:32.394Z,3.14
2022-12-15T10:07:05.835Z,3.05
2022-12-15T10:09:32.968Z,3.03
2022-12-15T10:12:02.005Z,3.18
2022-12-15T10:14:50.107Z,3.07
2022-12-15T10:17:22.661Z,2.96
2022-12-15T10:19:55.862Z,3.03
2022-12-15T10:22:24.919Z,3.00
2022-12-15T10:25:10.052Z,3.15
2022-12-15T10:27:57.633Z,3.32
2022-12-15T10:30:24.916Z,3.27
2022-12-15T10:32:52.628Z,3.28
2022-12-15T10:35:22.777Z,3.40
2022-12-15T10:37:50.062Z,3.48
2022-12-15T10:40:18.955Z,3.64
2022-12-15T10:42:51.036Z,3.58
2022-12-15T10:45:33.853Z,3.44
2022-12-15T10:48:02.728Z,3.49
2022-12-15T10:50:29.987Z,3.35
2022-12-15T10:52:57.333Z,3.31
2022-12-15T10:55:33.024Z,3.26
2022-12-15T10:58:01.110Z,3.29
2022-12-15T11:00:32.629Z,3.27
2022-12-15T11:03:00.218Z,3.23
2022-12-15T11:05:27.850Z,3.23
2022-12-15T11:08:16.397Z,3.23
2022-12-15T11:11:17.520Z,3.31
2022-12-15T11:14:04.110Z,3.33
2022-12-15T11:16:31.831Z,3.37
2022-12-15T11:19:03.279Z,3.37
2022-12-15T11:21:58.786Z,3.49
2022-12-15T11:24:56.800Z,3.55
2022-12-15T11:27:37.634Z,3.61
2022-12-15T11:30:18.172Z,3.68
2022-12-15T11:32:51.038Z,3.63
2022-12-15T11:35:33.858Z,3.67
2022-12-15T11:38:27.562Z,3.67
2022-12-15T11:41:00.121Z,3.68
2022-12-15T11:44:08.231Z,3.71
2022-12-15T11:46:41.218Z,3.74
2022-12-15T11:49:22.111Z,3.71
2022-12-15T11:52:05.606Z,3.87
2022-12-15T11:54:55.028Z,4.05
2022-12-15T11:58:22.028Z,4.04
2022-12-15T12:01:16.070Z,3.91
2022-12-15T12:04:28.913Z,3.98
2022-12-15T12:07:22.559Z,4.01
2022-12-15T12:10:17.733Z,3.93
2022-12-15T12:13:09.581Z,3.92
2022-12-15T12:15:53.239Z,3.90
2022-12-15T12:18:27.688Z,4.03
2022-12-15T12:21:02.185Z,4.06
2022-12-15T12:24:07.704Z,4.02
2022-12-15T12:27:13.462Z,4.02
2022-12-15T12:29:51.098Z,3.94
2022-12-15T12:35:46.421Z,4.04
2022-12-15T12:38:27.693Z,3.97
2022-12-15T12:41:10.788Z,3.99
2022-12-15T12:46:48.939Z,3.97
2022-12-15T12:49:21.384Z,3.98
2022-12-15T12:51:52.900Z,4.00
2022-12-15T12:54:36.707Z,3.99
2022-12-15T12:57:13.238Z,4.03
2022-12-15T12:59:48.940Z,4.30
2022-12-15T13:02:24.713Z,4.35
2022-12-15T13:04:58.819Z,4.30
2022-12-15T13:07:29.097Z,4.24
2022-12-15T13:10:08.335Z,4.22
2022-12-15T13:12:52.840Z,4.24
2022-12-15T13:15:26.978Z,4.32
2022-12-15T13:18:00.324Z,4.32
2022-12-15T13:20:28.704Z,4.29
2022-12-15T13:22:56.922Z,4.29
2022-12-15T13:25:36.389Z,4.21
2022-12-15T13:28:22.610Z,4.28
2022-12-15T13:31:13.358Z,4.27
2022-12-15T13:33:52.875Z,4.35
2022-12-15T13:36:38.996Z,4.61
2022-12-15T13:39:15.031Z,4.33
2022-12-15T13:42:07.400Z,4.17
2022-12-15T13:44:32.884Z,3.95
2022-12-15T13:47:16.453Z,3.90
2022-12-15T13:50:01.317Z,3.80
2022-12-15T13:53:16.692Z,3.77
2022-12-15T13:55:28.250Z,3.83
2022-12-15T13:57:58.583Z,3.72
2022-12-15T14:00:25.990Z,3.65
2022-12-15T14:03:04.299Z,3.60
2022-12-15T14:05:31.859Z,3.54
2022-12-15T14:08:00.762Z,3.62
2022-12-15T14:10:37.763Z,3.63
2022-12-15T14:13:16.241Z,3.60
2022-12-15T14:15:46.333Z,3.48
2022-12-15T14:18:23.124Z,3.43
2022-12-15T14:20:51.089Z,3.47
2022-12-15T14:23:19.736Z,3.38
2022-12-15T14:25:57.655Z,3.29
2022-12-15T14:28:26.188Z,3.24
2022-12-15T14:30:53.404Z,3.32
2022-12-15T14:33:23.014Z,3.26
2022-12-15T14:35:56.015Z,3.12
2022-12-15T14:38:31.215Z,3.13
2022-12-15T14:41:01.051Z,3.05
2022-12-15T14:43:31.755Z,3.14
2022-12-15T14:46:09.233Z,3.01
2022-12-15T14:48:53.620Z,3.08
2022-12-15T14:51:21.808Z,2.98
2022-12-15T14:53:53.097Z,2.89
2022-12-15T14:56:25.732Z,2.86
2022-12-15T14:59:04.561Z,2.83
2022-12-15T15:01:40.974Z,2.79
2022-12-15T15:04:25.743Z,2.80
2022-12-15T15:06:57.815Z,2.74
2022-12-15T15:09:30.538Z,2.81
2022-12-15T15:12:02.429Z,2.80
2022-12-15T15:14:33.720Z,2.79
2022-12-15T15:17:04.406Z,2.82
2022-12-15T15:19:34.733Z,2.84
2022-12-15T15:22:04.924Z,2.84
2022-12-15T15:24:34.587Z,2.83
2022-12-15T15:27:20.369Z,2.84
2022-12-15T15:29:47.529Z,2.88
2022-12-15T15:32:22.686Z,2.89
2022-12-15T15:34:49.835Z,2.90
2022-12-15T15:37:18.676Z,2.90
2022-12-15T15:39:47.727Z,2.92
2022-12-15T15:42:14.825Z,2.92
2022-12-15T15:44:42.165Z,2.93
2022-12-15T15:47:17.996Z,2.96
2022-12-15T15:49:46.019Z,3.00
2022-12-15T15:52:13.318Z,3.00
2022-12-15T15:54:40.779Z,3.01
2022-12-15T15:57:11.937Z,3.04
2022-12-15T15:59:42.277Z,3.06
2022-12-15T16:02:16.160Z,3.07
2022-12-15T16:04:43.963Z,3.09
2022-12-15T16:07:24.293Z,3.10
2022-12-15T16:10:16.456Z,3.12
2022-12-15T16:12:48.758Z,3.20
2022-12-15T16:15:20.684Z,3.18
2022-12-15T16:17:56.965Z,3.16
2022-12-15T16:20:25.805Z,3.19
2022-12-15T16:23:05.638Z,3.21
2022-12-15T16:25:58.619Z,3.24
2022-12-15T16:28:29.102Z,3.33
2022-12-15T16:30:59.048Z,3.25
2022-12-15T16:33:26.257Z,3.17
2022-12-15T16:35:53.589Z,3.16
2022-12-15T16:38:25.447Z,3.04
2022-12-15T16:40:55.537Z,2.97
2022-12-15T16:43:24.374Z,2.93
2022-12-15T16:45:52.643Z,2.95
2022-12-15T16:48:21.674Z,2.97
2022-12-15T16:53:44.767Z,3.07
2022-12-15T16:59:30.825Z,3.08
2022-12-15T17:01:46.558Z,3.10
2022-12-15T17:04:14.090Z,3.24
2022-12-15T17:06:41.218Z,3.21
2022-12-15T17:09:13.415Z,3.18
2022-12-15T17:11:40.445Z,3.23
2022-12-15T17:14:09.881Z,3.20
2022-12-15T17:16:37.067Z,3.19
2022-12-15T17:19:08.606Z,3.18
2022-12-15T17:25:02.377Z,3.18
2022-12-15T17:30:22.974Z,3.35
2022-12-15T17:32:54.101Z,3.30
2022-12-15T17:35:30.205Z,3.21
2022-12-15T17:38:03.080Z,3.19
2022-12-15T17:40:32.781Z,3.25
2022-12-15T17:43:06.425Z,3.07
2022-12-15T17:45:37.908Z,3.04
2022-12-15T17:48:12.607Z,2.97
2022-12-15T17:50:48.059Z,2.97
2022-12-15T17:56:00.803Z,3.21
2022-12-15T17:58:36.224Z,3.15
2022-12-15T18:01:27.371Z,3.08
2022-12-15T18:06:44.068Z,3.05
2022-12-15T18:09:26.820Z,3.10
2022-12-15T18:11:57.740Z,2.96
2022-12-15T18:14:32.492Z,2.98
2022-12-15T18:17:07.719Z,2.90
2022-12-15T18:19:35.306Z,2.97
2022-12-15T18:22:30.631Z,2.96
2022-12-15T18:25:05.160Z,2.96
2022-12-15T18:27:41.029Z,3.01
2022-12-15T18:30:15.672Z,2.98
2022-12-15T18:32:50.881Z,2.91
2022-12-15T18:35:25.220Z,2.89
2022-12-15T18:37:52.754Z,2.93
2022-12-15T18:40:27.727Z,2.97
2022-12-15T18:42:56.711Z,2.94
2022-12-15T18:45:36.009Z,3.07
2022-12-15T18:48:11.898Z,3.00
2022-12-15T18:50:40.742Z,2.98
2022-12-15T18:53:13.882Z,2.97
2022-12-15T18:55:49.025Z,3.08
2022-12-15T18:58:26.766Z,3.01
2022-12-15T19:01:06.459Z,2.98
2022-12-15T19:04:00.556Z,3.04
2022-12-15T19:06:38.289Z,3.02
2022-12-15T19:09:29.740Z,3.03
2022-12-15T19:12:30.977Z,3.04
2022-12-15T19:18:22.945Z,3.03
2022-12-15T19:21:16.717Z,3.05
2022-12-15T19:23:44.383Z,3.09
2022-12-15T19:26:12.434Z,3.13
2022-12-15T19:28:39.653Z,3.16
2022-12-15T19:31:08.337Z,3.19
2022-12-15T19:33:35.760Z,3.20
2022-12-15T19:36:03.406Z,3.30
2022-12-15T19:38:32.611Z,3.32
2022-12-15T19:41:00.171Z,3.45
2022-12-15T19:43:27.707Z,3.41
2022-12-15T19:45:55.096Z,3.45
2022-12-15T19:48:27.748Z,3.39
2022-12-15T19:50:55.147Z,3.43
2022-12-15T19:53:32.732Z,3.69
2022-12-15T19:56:03.943Z,3.58
2022-12-15T19:58:32.283Z,3.60
2022-12-15T20:01:01.168Z,3.58
2022-12-15T20:03:31.473Z,3.59
2022-12-15T20:06:01.059Z,3.45
2022-12-15T20:08:32.837Z,3.41
2022-12-15T20:11:00.053Z,3.43
2022-12-15T20:13:27.241Z,3.40
2022-12-15T20:15:55.095Z,3.36
2022-12-15T20:18:22.499Z,3.32
2022-12-15T20:20:50.057Z,3.32
2022-12-15T20:23:21.371Z,3.41
2022-12-15T20:25:48.590Z,3.39
2022-12-15T20:28:18.399Z,3.47
2022-12-15T20:30:45.948Z,3.51
2022-12-15T20:33:13.983Z,3.54
2022-12-15T20:35:42.936Z,3.40
2022-12-15T20:38:22.178Z,3.62
2022-12-15T20:40:49.845Z,3.47
2022-12-15T20:43:18.790Z,3.36
2022-12-15T20:45:47.515Z,3.44
2022-12-15T20:48:15.366Z,3.40
2022-12-15T20:50:49.428Z,3.28
2022-12-15T20:53:21.690Z,3.23
2022-12-15T20:55:51.638Z,3.15
2022-12-15T20:58:19.767Z,3.09
2022-12-15T21:00:48.596Z,3.04
2022-12-15T21:03:30.123Z,3.00
2022-12-15T21:05:58.687Z,2.94
2022-12-15T21:08:28.081Z,2.88
2022-12-15T21:11:06.020Z,2.98
2022-12-15T21:13:37.127Z,2.94
2022-12-15T21:16:04.671Z,2.89
2022-12-15T21:21:27.700Z,2.92
2022-12-15T21:23:55.820Z,2.89
2022-12-15T21:26:23.674Z,3.00
2022-12-15T21:28:54.089Z,2.90
2022-12-15T21:31:22.813Z,2.95
2022-12-15T21:33:50.295Z,2.92
2022-12-15T21:36:18.751Z,2.92
2022-12-15T21:38:47.438Z,3.09
2022-12-15T21:41:16.528Z,3.17
2022-12-15T21:43:43.783Z,3.05
2022-12-15T21:46:14.500Z,3.02
2022-12-15T21:49:01.027Z,3.04
2022-12-15T21:52:12.457Z,3.17
2022-12-15T21:54:39.486Z,3.13
2022-12-15T22:00:48.380Z,3.19
2022-12-15T22:03:15.622Z,3.20
2022-12-15T22:05:42.807Z,3.13
2022-12-15T22:08:14.900Z,3.06
2022-12-15T22:10:42.504Z,3.12
2022-12-15T22:13:12.753Z,3.15
2022-12-15T22:15:39.855Z,3.12
2022-12-15T22:18:11.825Z,3.09
2022-12-15T22:20:39.184Z,3.05
2022-12-15T22:23:06.516Z,3.17
2022-12-15T22:25:33.659Z,3.14
2022-12-15T22:28:00.770Z,3.14
2022-12-15T22:30:28.062Z,3.13
2022-12-15T22:32:55.043Z,3.13
2022-12-15T22:35:23.482Z,3.16
2022-12-15T22:37:53.524Z,3.16
2022-12-15T22:40:21.067Z,3.18
2022-12-15T22:42:52.331Z,3.18
2022-12-15T22:45:23.977Z,3.23
2022-12-15T22:47:52.249Z,3.28
2022-12-15T22:50:22.344Z,3.32
2022-12-15T22:52:49.564Z,3.36
2022-12-15T22:55:17.213Z,3.29
2022-12-15T22:57:51.075Z,3.24
2022-12-15T23:00:18.293Z,3.23
2022-12-15T23:02:46.505Z,3.31
2022-12-15T23:05:14.869Z,3.31
2022-12-15T23:07:42.589Z,3.30
2022-12-15T23:10:29.002Z,3.34
2022-12-15T23:12:56.222Z,3.44
2022-12-15T23:15:42.609Z,3.39
2022-12-15T23:18:10.201Z,3.38
2022-12-15T23:20:37.414Z,3.41
2022-12-15T23:23:04.902Z,3.37
2022-12-15T23:25:32.280Z,3.37
2022-12-15T23:27:59.734Z,3.35
2022-12-15T23:30:26.730Z,3.44
2022-12-15T23:32:55.333Z,3.48
2022-12-15T23:35:22.813Z,3.52
2022-12-15T23:37:49.913Z,3.48
2022-12-15T23:40:22.152Z,3.43
2022-12-15T23:42:50.483Z,3.44
2022-12-15T23:45:18.257Z,3.42
2022-12-15T23:47:45.434Z,3.51
2022-12-15T23:50:12.619Z,3.54
2022-12-15T23:52:39.771Z,3.59
2022-12-15T23:55:10.136Z,3.57
2022-12-15T23:57:37.864Z,3.55
